KSDF

Louisville International-Standiford Field Airport

Louisville, Kentucky, USA
METAR KSDF 212156Z 27005KT 10SM FEW021 BKN050 BKN065 OVC150 27/22 A2971 RMK AO2 LTG DSNT S RAE34 SLP057 SH DSNT W-N-NE AND E-S-SW P0001 T02670222 $
Observed Flight Rules
Jun-21 @ 21:56 UTC (10 minutes ago) Visual Flight Rules
Wind Visibility Clouds
270° at 5 knots 10 miles
  • Few at 2,100' AGL
  • Broken at 5,000' AGL
  • Broken at 6,500' AGL
  • Overcast at 15,000' AGL
Temperatures Readings Precipitation
Current 27°C / 81°F
Dewpoint 22°C / 72°F
Humidity 74%
Altimeter 29.71" Hg
Pressure 1005.7 hPa
Elevation 146
Current Rain 0.01
METAR KSDF 212156Z 27005KT 10SM FEW021 BKN050 BKN065 OVC150 27/22 A2971 RMK AO2 LTG DSNT S RAE34 SLP057 SH DSNT W-N-NE AND E-S-SW P0001 T02670222 $
Observed Flight Rules
Jun-21 @ 21:56 UTC
(10 minutes ago)
VFR
Wind Visibility
270° at 5 knots 10 miles
Clouds
  • Few at 2,100' AGL
  • Broken at 5,000' AGL
  • Broken at 6,500' AGL
  • Overcast at 15,000' AGL
Temperature Dewpoint
27°C / 81°F 22°C / 72°F
Humidity Altimeter Pressure
74% 29.71" Hg 1005.7 hPa
Current Rain
0.01